sensor_id;sensor_type;location;lat;lon;timestamp;P1;durP1;ratioP1;P2;durP2;ratioP2
83094;SDS011;72967;43.674;6.976;2024-01-27T00:00:17;15.48;;;8.27;;
83094;SDS011;72967;43.674;6.976;2024-01-27T00:02:43;12.65;;;8.60;;
83094;SDS011;72967;43.674;6.976;2024-01-27T00:05:08;13.30;;;7.93;;
83094;SDS011;72967;43.674;6.976;2024-01-27T00:07:34;11.65;;;7.45;;
83094;SDS011;72967;43.674;6.976;2024-01-27T00:10:00;22.02;;;8.32;;
83094;SDS011;72967;43.674;6.976;2024-01-27T00:12:26;12.45;;;9.00;;
83094;SDS011;72967;43.674;6.976;2024-01-27T00:14:51;11.02;;;8.45;;
83094;SDS011;72967;43.674;6.976;2024-01-27T00:17:17;13.10;;;8.60;;
83094;SDS011;72967;43.674;6.976;2024-01-27T00:19:44;17.02;;;8.45;;
83094;SDS011;72967;43.674;6.976;2024-01-27T00:22:10;13.23;;;8.10;;
83094;SDS011;72967;43.674;6.976;2024-01-27T00:24:35;15.82;;;8.77;;
83094;SDS011;72967;43.674;6.976;2024-01-27T00:27:01;15.02;;;8.57;;
83094;SDS011;72967;43.674;6.976;2024-01-27T00:29:26;13.88;;;8.55;;
83094;SDS011;72967;43.674;6.976;2024-01-27T00:31:51;16.08;;;8.63;;
83094;SDS011;72967;43.674;6.976;2024-01-27T00:34:19;16.08;;;9.32;;
83094;SDS011;72967;43.674;6.976;2024-01-27T00:36:45;14.43;;;8.52;;
83094;SDS011;72967;43.674;6.976;2024-01-27T00:39:17;15.75;;;8.60;;
83094;SDS011;72967;43.674;6.976;2024-01-27T00:41:44;17.25;;;8.93;;
83094;SDS011;72967;43.674;6.976;2024-01-27T00:44:09;13.13;;;8.65;;
83094;SDS011;72967;43.674;6.976;2024-01-27T00:46:36;16.58;;;9.25;;
83094;SDS011;72967;43.674;6.976;2024-01-27T00:49:02;14.23;;;9.10;;
83094;SDS011;72967;43.674;6.976;2024-01-27T00:51:27;14.65;;;8.35;;
83094;SDS011;72967;43.674;6.976;2024-01-27T00:53:53;17.38;;;8.98;;
83094;SDS011;72967;43.674;6.976;2024-01-27T00:56:18;13.15;;;8.85;;
83094;SDS011;72967;43.674;6.976;2024-01-27T00:58:44;12.85;;;8.77;;
83094;SDS011;72967;43.674;6.976;2024-01-27T01:01:09;16.40;;;8.07;;
83094;SDS011;72967;43.674;6.976;2024-01-27T01:03:35;11.55;;;8.32;;
83094;SDS011;72967;43.674;6.976;2024-01-27T01:06:00;12.75;;;8.27;;
83094;SDS011;72967;43.674;6.976;2024-01-27T01:08:26;16.15;;;8.73;;
83094;SDS011;72967;43.674;6.976;2024-01-27T01:10:53;13.93;;;7.10;;
83094;SDS011;72967;43.674;6.976;2024-01-27T01:13:18;11.70;;;7.57;;
83094;SDS011;72967;43.674;6.976;2024-01-27T01:15:44;15.77;;;8.48;;
83094;SDS011;72967;43.674;6.976;2024-01-27T01:18:09;13.82;;;7.70;;
83094;SDS011;72967;43.674;6.976;2024-01-27T01:20:35;13.15;;;9.40;;
83094;SDS011;72967;43.674;6.976;2024-01-27T01:23:00;14.70;;;8.43;;
83094;SDS011;72967;43.674;6.976;2024-01-27T01:25:26;16.27;;;9.13;;
83094;SDS011;72967;43.674;6.976;2024-01-27T01:27:51;15.80;;;8.73;;
83094;SDS011;72967;43.674;6.976;2024-01-27T01:30:17;12.85;;;7.80;;
83094;SDS011;72967;43.674;6.976;2024-01-27T01:32:43;13.75;;;8.68;;
83094;SDS011;72967;43.674;6.976;2024-01-27T01:35:09;13.95;;;7.85;;
83094;SDS011;72967;43.674;6.976;2024-01-27T01:37:35;12.57;;;8.13;;
83094;SDS011;72967;43.674;6.976;2024-01-27T01:40:00;12.50;;;8.73;;
83094;SDS011;72967;43.674;6.976;2024-01-27T01:42:26;12.88;;;7.13;;
83094;SDS011;72967;43.674;6.976;2024-01-27T01:44:51;10.93;;;7.28;;
83094;SDS011;72967;43.674;6.976;2024-01-27T01:47:17;9.27;;;6.45;;
83094;SDS011;72967;43.674;6.976;2024-01-27T01:49:43;15.02;;;7.72;;
83094;SDS011;72967;43.674;6.976;2024-01-27T01:52:09;14.68;;;8.55;;
83094;SDS011;72967;43.674;6.976;2024-01-27T01:54:35;13.88;;;7.38;;
83094;SDS011;72967;43.674;6.976;2024-01-27T01:57:01;11.05;;;7.25;;
83094;SDS011;72967;43.674;6.976;2024-01-27T01:59:28;15.48;;;8.05;;
83094;SDS011;72967;43.674;6.976;2024-01-27T02:01:53;13.82;;;7.22;;
83094;SDS011;72967;43.674;6.976;2024-01-27T02:04:19;12.80;;;6.50;;
83094;SDS011;72967;43.674;6.976;2024-01-27T02:06:44;12.95;;;8.40;;
83094;SDS011;72967;43.674;6.976;2024-01-27T02:09:10;9.57;;;6.03;;
83094;SDS011;72967;43.674;6.976;2024-01-27T02:11:36;11.88;;;7.13;;
83094;SDS011;72967;43.674;6.976;2024-01-27T02:14:01;15.13;;;6.93;;
83094;SDS011;72967;43.674;6.976;2024-01-27T02:16:27;7.82;;;5.63;;
83094;SDS011;72967;43.674;6.976;2024-01-27T02:18:52;10.48;;;6.25;;
83094;SDS011;72967;43.674;6.976;2024-01-27T02:21:18;13.13;;;6.55;;
83094;SDS011;72967;43.674;6.976;2024-01-27T02:23:43;10.25;;;6.38;;
83094;SDS011;72967;43.674;6.976;2024-01-27T02:26:09;11.93;;;7.13;;
83094;SDS011;72967;43.674;6.976;2024-01-27T02:28:34;12.63;;;6.22;;
83094;SDS011;72967;43.674;6.976;2024-01-27T02:31:00;9.70;;;6.43;;
83094;SDS011;72967;43.674;6.976;2024-01-27T02:33:26;12.48;;;6.93;;
83094;SDS011;72967;43.674;6.976;2024-01-27T02:35:51;9.25;;;5.90;;
83094;SDS011;72967;43.674;6.976;2024-01-27T02:38:17;8.40;;;5.57;;
83094;SDS011;72967;43.674;6.976;2024-01-27T02:40:42;10.50;;;6.00;;
83094;SDS011;72967;43.674;6.976;2024-01-27T02:43:08;9.27;;;6.15;;
83094;SDS011;72967;43.674;6.976;2024-01-27T02:45:33;13.23;;;6.22;;
83094;SDS011;72967;43.674;6.976;2024-01-27T02:47:58;8.30;;;6.45;;
83094;SDS011;72967;43.674;6.976;2024-01-27T02:50:24;13.23;;;6.15;;
83094;SDS011;72967;43.674;6.976;2024-01-27T02:52:50;9.88;;;6.18;;
83094;SDS011;72967;43.674;6.976;2024-01-27T02:55:15;9.50;;;5.78;;
83094;SDS011;72967;43.674;6.976;2024-01-27T02:57:41;13.40;;;6.45;;
83094;SDS011;72967;43.674;6.976;2024-01-27T03:00:06;8.90;;;6.47;;
83094;SDS011;72967;43.674;6.976;2024-01-27T03:02:32;8.05;;;4.90;;
83094;SDS011;72967;43.674;6.976;2024-01-27T03:04:58;11.45;;;6.00;;
83094;SDS011;72967;43.674;6.976;2024-01-27T03:07:23;9.50;;;5.82;;
83094;SDS011;72967;43.674;6.976;2024-01-27T03:09:49;10.65;;;6.65;;
83094;SDS011;72967;43.674;6.976;2024-01-27T03:12:14;8.68;;;5.70;;
83094;SDS011;72967;43.674;6.976;2024-01-27T03:14:40;13.38;;;6.07;;
83094;SDS011;72967;43.674;6.976;2024-01-27T03:17:07;9.93;;;5.95;;
83094;SDS011;72967;43.674;6.976;2024-01-27T03:19:32;11.75;;;6.05;;
83094;SDS011;72967;43.674;6.976;2024-01-27T03:21:58;13.05;;;6.40;;
83094;SDS011;72967;43.674;6.976;2024-01-27T03:24:23;9.55;;;6.55;;
83094;SDS011;72967;43.674;6.976;2024-01-27T03:26:49;10.48;;;6.18;;
83094;SDS011;72967;43.674;6.976;2024-01-27T03:29:14;11.20;;;5.97;;
83094;SDS011;72967;43.674;6.976;2024-01-27T03:31:40;10.10;;;5.75;;
83094;SDS011;72967;43.674;6.976;2024-01-27T03:34:05;7.80;;;5.57;;
83094;SDS011;72967;43.674;6.976;2024-01-27T03:36:31;10.27;;;4.95;;
83094;SDS011;72967;43.674;6.976;2024-01-27T03:38:56;9.90;;;5.53;;
83094;SDS011;72967;43.674;6.976;2024-01-27T03:41:23;10.75;;;6.20;;
83094;SDS011;72967;43.674;6.976;2024-01-27T03:43:49;11.90;;;6.22;;
83094;SDS011;72967;43.674;6.976;2024-01-27T03:46:14;9.23;;;5.45;;
83094;SDS011;72967;43.674;6.976;2024-01-27T03:48:40;11.57;;;6.07;;
83094;SDS011;72967;43.674;6.976;2024-01-27T03:51:06;10.18;;;5.68;;
83094;SDS011;72967;43.674;6.976;2024-01-27T03:53:31;9.70;;;6.95;;
83094;SDS011;72967;43.674;6.976;2024-01-27T03:55:57;10.77;;;5.65;;
83094;SDS011;72967;43.674;6.976;2024-01-27T03:58:24;7.75;;;5.43;;
83094;SDS011;72967;43.674;6.976;2024-01-27T04:00:50;9.48;;;5.18;;
83094;SDS011;72967;43.674;6.976;2024-01-27T04:03:16;12.00;;;5.40;;
83094;SDS011;72967;43.674;6.976;2024-01-27T04:05:42;11.18;;;5.40;;
83094;SDS011;72967;43.674;6.976;2024-01-27T04:08:07;8.88;;;5.50;;
83094;SDS011;72967;43.674;6.976;2024-01-27T04:10:33;8.85;;;6.15;;
83094;SDS011;72967;43.674;6.976;2024-01-27T04:12:59;10.18;;;6.13;;
83094;SDS011;72967;43.674;6.976;2024-01-27T04:15:24;14.73;;;5.53;;
83094;SDS011;72967;43.674;6.976;2024-01-27T04:17:50;11.05;;;6.25;;
83094;SDS011;72967;43.674;6.976;2024-01-27T04:20:15;6.25;;;4.53;;
83094;SDS011;72967;43.674;6.976;2024-01-27T04:22:41;9.10;;;5.85;;
83094;SDS011;72967;43.674;6.976;2024-01-27T04:25:07;7.30;;;5.55;;
83094;SDS011;72967;43.674;6.976;2024-01-27T04:27:35;11.00;;;5.38;;
83094;SDS011;72967;43.674;6.976;2024-01-27T04:30:02;9.13;;;5.90;;
83094;SDS011;72967;43.674;6.976;2024-01-27T04:32:28;11.18;;;5.28;;
83094;SDS011;72967;43.674;6.976;2024-01-27T04:34:53;9.30;;;4.60;;
83094;SDS011;72967;43.674;6.976;2024-01-27T04:37:19;7.90;;;5.40;;
83094;SDS011;72967;43.674;6.976;2024-01-27T04:39:44;6.97;;;4.97;;
83094;SDS011;72967;43.674;6.976;2024-01-27T04:42:09;7.78;;;5.85;;
83094;SDS011;72967;43.674;6.976;2024-01-27T04:44:35;8.68;;;6.22;;
83094;SDS011;72967;43.674;6.976;2024-01-27T04:47:00;9.27;;;5.53;;
83094;SDS011;72967;43.674;6.976;2024-01-27T04:49:26;9.60;;;5.85;;
83094;SDS011;72967;43.674;6.976;2024-01-27T04:51:51;10.93;;;5.50;;
83094;SDS011;72967;43.674;6.976;2024-01-27T04:54:16;9.98;;;5.32;;
83094;SDS011;72967;43.674;6.976;2024-01-27T04:56:42;10.02;;;5.78;;
83094;SDS011;72967;43.674;6.976;2024-01-27T04:59:07;10.10;;;5.22;;
83094;SDS011;72967;43.674;6.976;2024-01-27T05:01:33;7.28;;;5.00;;
83094;SDS011;72967;43.674;6.976;2024-01-27T05:03:58;7.85;;;5.60;;
83094;SDS011;72967;43.674;6.976;2024-01-27T05:06:24;10.30;;;5.72;;
83094;SDS011;72967;43.674;6.976;2024-01-27T05:08:50;14.07;;;6.38;;
83094;SDS011;72967;43.674;6.976;2024-01-27T05:11:15;9.57;;;5.93;;
83094;SDS011;72967;43.674;6.976;2024-01-27T05:13:50;8.73;;;5.82;;
83094;SDS011;72967;43.674;6.976;2024-01-27T05:16:15;10.30;;;6.13;;
83094;SDS011;72967;43.674;6.976;2024-01-27T05:18:40;6.78;;;4.93;;
83094;SDS011;72967;43.674;6.976;2024-01-27T05:21:06;7.88;;;5.32;;
83094;SDS011;72967;43.674;6.976;2024-01-27T05:23:31;10.35;;;6.20;;
83094;SDS011;72967;43.674;6.976;2024-01-27T05:25:57;10.05;;;5.63;;
83094;SDS011;72967;43.674;6.976;2024-01-27T05:28:22;8.40;;;6.07;;
83094;SDS011;72967;43.674;6.976;2024-01-27T05:30:47;8.45;;;5.97;;
83094;SDS011;72967;43.674;6.976;2024-01-27T05:33:13;14.27;;;6.43;;
83094;SDS011;72967;43.674;6.976;2024-01-27T05:35:38;9.95;;;6.30;;
83094;SDS011;72967;43.674;6.976;2024-01-27T05:38:04;9.82;;;5.72;;
83094;SDS011;72967;43.674;6.976;2024-01-27T05:40:29;10.10;;;6.07;;
83094;SDS011;72967;43.674;6.976;2024-01-27T05:42:54;11.60;;;5.97;;
83094;SDS011;72967;43.674;6.976;2024-01-27T05:45:20;8.50;;;5.45;;
83094;SDS011;72967;43.674;6.976;2024-01-27T05:47:45;8.20;;;5.35;;
83094;SDS011;72967;43.674;6.976;2024-01-27T05:50:11;11.45;;;5.40;;
83094;SDS011;72967;43.674;6.976;2024-01-27T05:52:36;11.20;;;6.22;;
83094;SDS011;72967;43.674;6.976;2024-01-27T05:55:02;9.45;;;6.10;;
83094;SDS011;72967;43.674;6.976;2024-01-27T05:57:28;7.50;;;5.28;;
83094;SDS011;72967;43.674;6.976;2024-01-27T05:59:53;9.52;;;6.47;;
83094;SDS011;72967;43.674;6.976;2024-01-27T06:02:19;13.70;;;6.88;;
83094;SDS011;72967;43.674;6.976;2024-01-27T06:04:45;14.88;;;6.65;;
83094;SDS011;72967;43.674;6.976;2024-01-27T06:07:11;11.48;;;6.45;;
83094;SDS011;72967;43.674;6.976;2024-01-27T06:09:39;10.88;;;5.95;;
83094;SDS011;72967;43.674;6.976;2024-01-27T06:12:05;9.88;;;6.80;;
83094;SDS011;72967;43.674;6.976;2024-01-27T06:14:30;11.90;;;6.25;;
83094;SDS011;72967;43.674;6.976;2024-01-27T06:16:56;12.52;;;6.15;;
83094;SDS011;72967;43.674;6.976;2024-01-27T06:19:22;10.80;;;6.07;;
83094;SDS011;72967;43.674;6.976;2024-01-27T06:21:47;11.75;;;6.45;;
83094;SDS011;72967;43.674;6.976;2024-01-27T06:24:12;7.13;;;5.75;;
83094;SDS011;72967;43.674;6.976;2024-01-27T06:26:38;10.13;;;6.25;;
83094;SDS011;72967;43.674;6.976;2024-01-27T06:29:03;12.60;;;6.85;;
83094;SDS011;72967;43.674;6.976;2024-01-27T06:31:29;9.75;;;5.80;;
83094;SDS011;72967;43.674;6.976;2024-01-27T06:33:54;14.00;;;6.57;;
83094;SDS011;72967;43.674;6.976;2024-01-27T06:36:20;9.95;;;6.07;;
83094;SDS011;72967;43.674;6.976;2024-01-27T06:38:48;10.43;;;6.05;;
83094;SDS011;72967;43.674;6.976;2024-01-27T06:41:13;11.13;;;5.85;;
83094;SDS011;72967;43.674;6.976;2024-01-27T06:43:38;10.02;;;5.93;;
83094;SDS011;72967;43.674;6.976;2024-01-27T06:46:04;10.32;;;5.97;;
83094;SDS011;72967;43.674;6.976;2024-01-27T06:48:30;9.50;;;5.60;;
83094;SDS011;72967;43.674;6.976;2024-01-27T06:50:55;8.48;;;5.63;;
83094;SDS011;72967;43.674;6.976;2024-01-27T06:53:21;9.20;;;5.10;;
83094;SDS011;72967;43.674;6.976;2024-01-27T06:55:46;11.40;;;5.53;;
83094;SDS011;72967;43.674;6.976;2024-01-27T06:58:12;10.85;;;5.47;;
83094;SDS011;72967;43.674;6.976;2024-01-27T07:00:38;9.75;;;5.35;;
83094;SDS011;72967;43.674;6.976;2024-01-27T07:03:03;13.77;;;6.07;;
83094;SDS011;72967;43.674;6.976;2024-01-27T07:05:29;9.75;;;5.15;;
83094;SDS011;72967;43.674;6.976;2024-01-27T07:07:54;10.13;;;5.70;;
83094;SDS011;72967;43.674;6.976;2024-01-27T07:10:20;9.32;;;5.68;;
83094;SDS011;72967;43.674;6.976;2024-01-27T07:12:45;10.60;;;5.53;;
83094;SDS011;72967;43.674;6.976;2024-01-27T07:15:11;7.95;;;5.68;;
83094;SDS011;72967;43.674;6.976;2024-01-27T07:17:36;11.40;;;5.88;;
83094;SDS011;72967;43.674;6.976;2024-01-27T07:20:02;12.60;;;5.57;;
83094;SDS011;72967;43.674;6.976;2024-01-27T07:22:28;8.25;;;5.57;;
83094;SDS011;72967;43.674;6.976;2024-01-27T07:24:53;13.60;;;5.55;;
83094;SDS011;72967;43.674;6.976;2024-01-27T07:27:18;10.07;;;4.75;;
83094;SDS011;72967;43.674;6.976;2024-01-27T07:29:44;8.20;;;4.85;;
83094;SDS011;72967;43.674;6.976;2024-01-27T07:32:09;7.22;;;4.38;;
83094;SDS011;72967;43.674;6.976;2024-01-27T07:34:40;9.32;;;5.13;;
83094;SDS011;72967;43.674;6.976;2024-01-27T07:37:08;10.27;;;5.18;;
83094;SDS011;72967;43.674;6.976;2024-01-27T07:39:34;5.82;;;3.83;;
83094;SDS011;72967;43.674;6.976;2024-01-27T07:42:00;7.82;;;5.35;;
83094;SDS011;72967;43.674;6.976;2024-01-27T07:44:27;6.30;;;4.90;;
83094;SDS011;72967;43.674;6.976;2024-01-27T07:46:53;13.57;;;5.05;;
83094;SDS011;72967;43.674;6.976;2024-01-27T07:49:18;6.10;;;4.45;;
83094;SDS011;72967;43.674;6.976;2024-01-27T07:51:44;11.23;;;4.97;;
83094;SDS011;72967;43.674;6.976;2024-01-27T07:54:09;7.88;;;5.40;;
83094;SDS011;72967;43.674;6.976;2024-01-27T07:56:35;8.13;;;5.68;;
83094;SDS011;72967;43.674;6.976;2024-01-27T07:59:00;10.90;;;6.13;;
83094;SDS011;72967;43.674;6.976;2024-01-27T08:01:26;8.10;;;4.90;;
83094;SDS011;72967;43.674;6.976;2024-01-27T08:03:51;10.10;;;5.00;;
83094;SDS011;72967;43.674;6.976;2024-01-27T08:06:18;12.80;;;5.60;;
83094;SDS011;72967;43.674;6.976;2024-01-27T08:08:46;9.52;;;5.80;;
83094;SDS011;72967;43.674;6.976;2024-01-27T08:11:13;11.40;;;5.90;;
83094;SDS011;72967;43.674;6.976;2024-01-27T08:13:39;9.38;;;6.93;;
83094;SDS011;72967;43.674;6.976;2024-01-27T08:16:05;7.07;;;5.90;;
83094;SDS011;72967;43.674;6.976;2024-01-27T08:18:31;9.15;;;6.05;;
83094;SDS011;72967;43.674;6.976;2024-01-27T08:20:56;7.50;;;5.00;;
83094;SDS011;72967;43.674;6.976;2024-01-27T08:23:22;10.07;;;6.18;;
83094;SDS011;72967;43.674;6.976;2024-01-27T08:25:48;8.40;;;6.45;;
83094;SDS011;72967;43.674;6.976;2024-01-27T08:28:17;9.48;;;6.13;;
83094;SDS011;72967;43.674;6.976;2024-01-27T08:30:43;12.65;;;5.85;;
83094;SDS011;72967;43.674;6.976;2024-01-27T08:33:08;10.00;;;6.65;;
83094;SDS011;72967;43.674;6.976;2024-01-27T08:35:34;10.13;;;5.88;;
83094;SDS011;72967;43.674;6.976;2024-01-27T08:37:59;13.00;;;6.43;;
83094;SDS011;72967;43.674;6.976;2024-01-27T08:40:24;7.43;;;5.22;;
83094;SDS011;72967;43.674;6.976;2024-01-27T08:42:50;14.13;;;6.13;;
83094;SDS011;72967;43.674;6.976;2024-01-27T08:45:16;10.40;;;6.15;;
83094;SDS011;72967;43.674;6.976;2024-01-27T08:47:41;11.02;;;5.35;;
83094;SDS011;72967;43.674;6.976;2024-01-27T08:50:07;11.27;;;6.57;;
83094;SDS011;72967;43.674;6.976;2024-01-27T08:52:33;11.55;;;5.88;;
83094;SDS011;72967;43.674;6.976;2024-01-27T08:54:58;8.43;;;5.80;;
83094;SDS011;72967;43.674;6.976;2024-01-27T08:57:24;8.10;;;5.45;;
83094;SDS011;72967;43.674;6.976;2024-01-27T08:59:49;11.13;;;5.88;;
83094;SDS011;72967;43.674;6.976;2024-01-27T09:02:15;11.48;;;5.50;;
83094;SDS011;72967;43.674;6.976;2024-01-27T09:04:40;11.38;;;5.97;;
83094;SDS011;72967;43.674;6.976;2024-01-27T09:07:06;14.90;;;6.55;;
83094;SDS011;72967;43.674;6.976;2024-01-27T09:09:31;12.43;;;7.00;;
83094;SDS011;72967;43.674;6.976;2024-01-27T09:11:56;12.75;;;5.57;;
83094;SDS011;72967;43.674;6.976;2024-01-27T09:14:22;8.75;;;5.65;;
83094;SDS011;72967;43.674;6.976;2024-01-27T09:16:47;12.68;;;6.10;;
83094;SDS011;72967;43.674;6.976;2024-01-27T09:19:13;10.73;;;5.10;;
83094;SDS011;72967;43.674;6.976;2024-01-27T09:21:38;8.68;;;6.13;;
83094;SDS011;72967;43.674;6.976;2024-01-27T09:24:04;11.30;;;5.32;;
83094;SDS011;72967;43.674;6.976;2024-01-27T09:26:29;11.20;;;6.85;;
83094;SDS011;72967;43.674;6.976;2024-01-27T09:28:55;11.57;;;5.70;;
83094;SDS011;72967;43.674;6.976;2024-01-27T09:31:23;6.88;;;5.65;;
83094;SDS011;72967;43.674;6.976;2024-01-27T09:33:50;11.00;;;5.28;;
83094;SDS011;72967;43.674;6.976;2024-01-27T09:36:18;7.00;;;5.15;;
83094;SDS011;72967;43.674;6.976;2024-01-27T09:38:45;11.68;;;5.68;;
83094;SDS011;72967;43.674;6.976;2024-01-27T09:41:12;6.93;;;4.45;;
83094;SDS011;72967;43.674;6.976;2024-01-27T09:43:40;9.25;;;4.80;;
83094;SDS011;72967;43.674;6.976;2024-01-27T09:46:09;8.32;;;4.70;;
83094;SDS011;72967;43.674;6.976;2024-01-27T09:48:35;5.80;;;4.07;;
83094;SDS011;72967;43.674;6.976;2024-01-27T09:51:01;6.13;;;4.13;;
83094;SDS011;72967;43.674;6.976;2024-01-27T09:53:28;10.60;;;4.93;;
83094;SDS011;72967;43.674;6.976;2024-01-27T09:55:54;5.45;;;4.80;;
83094;SDS011;72967;43.674;6.976;2024-01-27T09:58:23;7.68;;;4.97;;
83094;SDS011;72967;43.674;6.976;2024-01-27T10:00:51;7.75;;;4.80;;
83094;SDS011;72967;43.674;6.976;2024-01-27T10:03:17;9.82;;;5.60;;
83094;SDS011;72967;43.674;6.976;2024-01-27T10:05:45;8.70;;;5.57;;
83094;SDS011;72967;43.674;6.976;2024-01-27T10:08:11;8.15;;;5.28;;
83094;SDS011;72967;43.674;6.976;2024-01-27T10:10:36;11.60;;;6.40;;
83094;SDS011;72967;43.674;6.976;2024-01-27T10:13:03;11.82;;;8.25;;
83094;SDS011;72967;43.674;6.976;2024-01-27T10:15:29;15.88;;;10.25;;
83094;SDS011;72967;43.674;6.976;2024-01-27T10:18:07;17.80;;;9.07;;
83094;SDS011;72967;43.674;6.976;2024-01-27T10:20:33;12.77;;;9.15;;
83094;SDS011;72967;43.674;6.976;2024-01-27T10:22:59;13.82;;;9.20;;
83094;SDS011;72967;43.674;6.976;2024-01-27T10:25:39;12.68;;;7.93;;
83094;SDS011;72967;43.674;6.976;2024-01-27T10:28:07;13.88;;;7.82;;
83094;SDS011;72967;43.674;6.976;2024-01-27T10:30:33;12.32;;;6.90;;
83094;SDS011;72967;43.674;6.976;2024-01-27T10:32:59;12.38;;;7.00;;
83094;SDS011;72967;43.674;6.976;2024-01-27T10:35:25;11.40;;;7.03;;
83094;SDS011;72967;43.674;6.976;2024-01-27T10:37:54;10.82;;;6.55;;
83094;SDS011;72967;43.674;6.976;2024-01-27T10:40:20;8.35;;;6.70;;
83094;SDS011;72967;43.674;6.976;2024-01-27T10:42:51;10.23;;;6.63;;
83094;SDS011;72967;43.674;6.976;2024-01-27T10:45:21;8.52;;;5.88;;
83094;SDS011;72967;43.674;6.976;2024-01-27T10:47:47;11.95;;;6.25;;
83094;SDS011;72967;43.674;6.976;2024-01-27T10:50:14;10.55;;;6.45;;
83094;SDS011;72967;43.674;6.976;2024-01-27T10:52:40;9.73;;;6.07;;
83094;SDS011;72967;43.674;6.976;2024-01-27T10:55:09;9.43;;;5.40;;
83094;SDS011;72967;43.674;6.976;2024-01-27T10:57:36;9.38;;;5.70;;
83094;SDS011;72967;43.674;6.976;2024-01-27T11:00:03;10.63;;;6.10;;
83094;SDS011;72967;43.674;6.976;2024-01-27T11:02:34;10.32;;;5.60;;
83094;SDS011;72967;43.674;6.976;2024-01-27T11:05:03;10.82;;;6.30;;
83094;SDS011;72967;43.674;6.976;2024-01-27T11:07:30;8.25;;;5.70;;
83094;SDS011;72967;43.674;6.976;2024-01-27T11:09:58;8.73;;;6.55;;
83094;SDS011;72967;43.674;6.976;2024-01-27T11:12:23;10.68;;;6.78;;
83094;SDS011;72967;43.674;6.976;2024-01-27T11:14:50;18.90;;;12.05;;
83094;SDS011;72967;43.674;6.976;2024-01-27T11:17:16;13.50;;;8.20;;
83094;SDS011;72967;43.674;6.976;2024-01-27T11:19:42;11.77;;;9.07;;
83094;SDS011;72967;43.674;6.976;2024-01-27T11:22:22;24.35;;;11.60;;
83094;SDS011;72967;43.674;6.976;2024-01-27T11:27:37;9.65;;;5.68;;
83094;SDS011;72967;43.674;6.976;2024-01-27T11:30:03;8.82;;;5.57;;
83094;SDS011;72967;43.674;6.976;2024-01-27T11:32:30;11.15;;;5.97;;
83094;SDS011;72967;43.674;6.976;2024-01-27T11:34:56;13.25;;;5.88;;
83094;SDS011;72967;43.674;6.976;2024-01-27T11:37:22;9.02;;;5.70;;
83094;SDS011;72967;43.674;6.976;2024-01-27T11:39:51;8.05;;;5.88;;
83094;SDS011;72967;43.674;6.976;2024-01-27T11:42:19;9.93;;;5.13;;
83094;SDS011;72967;43.674;6.976;2024-01-27T11:44:45;8.73;;;6.03;;
83094;SDS011;72967;43.674;6.976;2024-01-27T11:47:17;11.18;;;5.75;;
83094;SDS011;72967;43.674;6.976;2024-01-27T11:49:48;14.95;;;6.22;;
83094;SDS011;72967;43.674;6.976;2024-01-27T11:52:18;9.95;;;5.43;;
83094;SDS011;72967;43.674;6.976;2024-01-27T11:54:43;7.97;;;5.40;;
83094;SDS011;72967;43.674;6.976;2024-01-27T11:57:09;10.90;;;5.15;;
83094;SDS011;72967;43.674;6.976;2024-01-27T11:59:34;11.13;;;5.68;;
83094;SDS011;72967;43.674;6.976;2024-01-27T12:02:00;9.15;;;5.35;;
83094;SDS011;72967;43.674;6.976;2024-01-27T12:04:27;7.45;;;5.15;;
83094;SDS011;72967;43.674;6.976;2024-01-27T12:06:53;13.18;;;5.50;;
83094;SDS011;72967;43.674;6.976;2024-01-27T12:09:19;7.78;;;5.90;;
83094;SDS011;72967;43.674;6.976;2024-01-27T12:11:44;7.47;;;5.07;;
83094;SDS011;72967;43.674;6.976;2024-01-27T12:14:10;9.70;;;5.93;;
83094;SDS011;72967;43.674;6.976;2024-01-27T12:16:36;8.60;;;5.18;;
83094;SDS011;72967;43.674;6.976;2024-01-27T12:19:03;8.32;;;4.70;;
83094;SDS011;72967;43.674;6.976;2024-01-27T12:21:29;9.07;;;5.13;;
83094;SDS011;72967;43.674;6.976;2024-01-27T12:23:55;9.52;;;5.28;;
83094;SDS011;72967;43.674;6.976;2024-01-27T12:26:25;8.80;;;5.90;;
83094;SDS011;72967;43.674;6.976;2024-01-27T12:28:51;8.50;;;5.45;;
83094;SDS011;72967;43.674;6.976;2024-01-27T12:31:17;7.30;;;4.93;;
83094;SDS011;72967;43.674;6.976;2024-01-27T12:33:49;8.35;;;4.80;;
83094;SDS011;72967;43.674;6.976;2024-01-27T12:36:19;6.80;;;5.05;;
83094;SDS011;72967;43.674;6.976;2024-01-27T12:39:01;6.10;;;4.78;;
83094;SDS011;72967;43.674;6.976;2024-01-27T12:41:29;10.80;;;5.97;;
83094;SDS011;72967;43.674;6.976;2024-01-27T12:43:54;10.40;;;5.82;;
83094;SDS011;72967;43.674;6.976;2024-01-27T12:46:21;7.18;;;4.70;;
83094;SDS011;72967;43.674;6.976;2024-01-27T12:48:46;7.55;;;4.78;;
83094;SDS011;72967;43.674;6.976;2024-01-27T12:51:12;8.40;;;4.97;;
83094;SDS011;72967;43.674;6.976;2024-01-27T12:53:38;7.78;;;4.75;;
83094;SDS011;72967;43.674;6.976;2024-01-27T12:56:07;8.43;;;5.40;;
83094;SDS011;72967;43.674;6.976;2024-01-27T12:58:33;9.68;;;5.57;;
83094;SDS011;72967;43.674;6.976;2024-01-27T13:00:59;8.55;;;5.45;;
83094;SDS011;72967;43.674;6.976;2024-01-27T13:03:24;8.75;;;4.78;;
83094;SDS011;72967;43.674;6.976;2024-01-27T13:05:50;6.63;;;4.97;;
83094;SDS011;72967;43.674;6.976;2024-01-27T13:08:15;8.02;;;5.22;;
83094;SDS011;72967;43.674;6.976;2024-01-27T13:10:40;11.73;;;5.45;;
83094;SDS011;72967;43.674;6.976;2024-01-27T13:13:06;8.90;;;5.35;;
83094;SDS011;72967;43.674;6.976;2024-01-27T13:15:31;6.57;;;5.13;;
83094;SDS011;72967;43.674;6.976;2024-01-27T13:17:57;7.97;;;4.57;;
83094;SDS011;72967;43.674;6.976;2024-01-27T13:20:22;8.82;;;4.93;;
83094;SDS011;72967;43.674;6.976;2024-01-27T13:22:47;11.02;;;5.00;;
83094;SDS011;72967;43.674;6.976;2024-01-27T13:25:13;10.45;;;5.10;;
83094;SDS011;72967;43.674;6.976;2024-01-27T13:27:39;9.00;;;5.10;;
83094;SDS011;72967;43.674;6.976;2024-01-27T13:30:04;8.43;;;5.70;;
83094;SDS011;72967;43.674;6.976;2024-01-27T13:32:30;8.95;;;5.38;;
83094;SDS011;72967;43.674;6.976;2024-01-27T13:34:56;10.50;;;5.70;;
83094;SDS011;72967;43.674;6.976;2024-01-27T13:37:21;7.97;;;4.93;;
83094;SDS011;72967;43.674;6.976;2024-01-27T13:39:47;11.70;;;5.07;;
83094;SDS011;72967;43.674;6.976;2024-01-27T13:42:13;9.85;;;6.00;;
83094;SDS011;72967;43.674;6.976;2024-01-27T13:44:38;8.50;;;5.65;;
83094;SDS011;72967;43.674;6.976;2024-01-27T13:47:04;8.05;;;5.05;;
83094;SDS011;72967;43.674;6.976;2024-01-27T13:49:31;9.98;;;5.32;;
83094;SDS011;72967;43.674;6.976;2024-01-27T13:51:57;7.60;;;5.25;;
83094;SDS011;72967;43.674;6.976;2024-01-27T13:54:22;11.93;;;4.95;;
83094;SDS011;72967;43.674;6.976;2024-01-27T13:56:48;6.55;;;4.78;;
83094;SDS011;72967;43.674;6.976;2024-01-27T13:59:13;8.35;;;5.38;;
83094;SDS011;72967;43.674;6.976;2024-01-27T14:01:38;8.82;;;5.53;;
83094;SDS011;72967;43.674;6.976;2024-01-27T14:04:04;10.73;;;5.53;;
83094;SDS011;72967;43.674;6.976;2024-01-27T14:06:30;9.68;;;4.97;;
83094;SDS011;72967;43.674;6.976;2024-01-27T14:08:56;7.25;;;4.82;;
83094;SDS011;72967;43.674;6.976;2024-01-27T14:11:21;9.23;;;5.80;;
83094;SDS011;72967;43.674;6.976;2024-01-27T14:13:47;6.65;;;5.22;;
83094;SDS011;72967;43.674;6.976;2024-01-27T14:16:12;8.13;;;5.93;;
83094;SDS011;72967;43.674;6.976;2024-01-27T14:18:38;8.60;;;5.10;;
83094;SDS011;72967;43.674;6.976;2024-01-27T14:21:03;9.05;;;5.30;;
83094;SDS011;72967;43.674;6.976;2024-01-27T14:23:29;8.82;;;4.78;;
83094;SDS011;72967;43.674;6.976;2024-01-27T14:25:56;11.52;;;4.93;;
83094;SDS011;72967;43.674;6.976;2024-01-27T14:28:22;7.30;;;4.88;;
83094;SDS011;72967;43.674;6.976;2024-01-27T14:30:47;7.03;;;5.15;;
83094;SDS011;72967;43.674;6.976;2024-01-27T14:33:13;8.18;;;5.22;;
83094;SDS011;72967;43.674;6.976;2024-01-27T14:35:39;6.60;;;5.20;;